Time;durP1;ratioP1;P1;durP2;ratioP2;P2;SDS_P1;SDS_P2;PMS_P1;PMS_P2;Temp;Humidity;BMP_temperature;BMP_pressure;BME280_temperature;BME280_humidity;BME280_pressure;Samples;Min_cycle;Max_cycle;Signal;HPM_P1;HPM_P2
2021/05/12 00:00:23;;;;;;;6.63;5.50;;;16.00;99.90;;;;;;5078692;28;20542;-83
2021/05/12 00:02:50;;;;;;;7.20;6.50;;;15.80;99.90;;;;;;5079233;28;20433;-81
2021/05/12 00:05:18;;;;;;;7.10;6.50;;;15.40;99.90;;;;;;5076998;28;20846;-81
2021/05/12 00:07:44;;;;;;;6.57;5.97;;;16.00;99.90;;;;;;5077781;28;20480;-82
2021/05/12 00:10:11;;;;;;;7.50;6.37;;;15.10;99.90;;;;;;5077162;28;20475;-82
2021/05/12 00:12:39;;;;;;;6.97;6.37;;;15.60;99.90;;;;;;5083816;28;20858;-81
2021/05/12 00:15:08;;;;;;;6.77;6.17;;;15.00;99.90;;;;;;5079155;28;20444;-82
2021/05/12 00:17:37;;;;;;;7.73;6.93;;;15.60;99.90;;;;;;5079107;28;20456;-81
2021/05/12 00:20:04;;;;;;;7.13;6.43;;;15.60;99.90;;;;;;5077294;28;20452;-82
2021/05/12 00:22:35;;;;;;;7.90;7.03;;;15.70;99.90;;;;;;5077886;28;20448;-82
2021/05/12 00:25:04;;;;;;;9.37;8.47;;;15.60;99.90;;;;;;5077208;28;20433;-82
2021/05/12 00:27:30;;;;;;;8.50;7.33;;;15.20;99.90;;;;;;5076158;28;20487;-82
2021/05/12 00:29:57;;;;;;;10.00;9.00;;;15.60;99.90;;;;;;5076576;28;20454;-82
2021/05/12 00:32:23;;;;;;;10.70;9.60;;;15.20;99.90;;;;;;5076606;28;20441;-82
2021/05/12 00:34:49;;;;;;;10.40;9.30;;;15.20;99.90;;;;;;5076038;28;20437;-82
2021/05/12 00:37:15;;;;;;;12.93;10.27;;;15.50;99.90;;;;;;5075905;28;20955;-82
2021/05/12 00:39:41;;;;;;;12.43;10.00;;;15.40;99.90;;;;;;5076685;28;20448;-82
2021/05/12 00:42:08;;;;;;;11.67;10.47;;;14.70;99.90;;;;;;5077084;28;20819;-83
2021/05/12 00:44:35;;;;;;;11.10;10.00;;;15.60;99.90;;;;;;5076634;28;20947;-82
2021/05/12 00:47:04;;;;;;;11.97;9.27;;;15.40;99.90;;;;;;5077049;28;21045;-82
2021/05/12 00:49:30;;;;;;;12.13;10.77;;;15.00;99.90;;;;;;5077192;28;20444;-82
2021/05/12 00:51:56;;;;;;;12.87;11.00;;;15.60;99.90;;;;;;5077389;28;20495;-82
2021/05/12 00:54:23;;;;;;;12.50;9.63;;;15.20;99.90;;;;;;5076723;28;20494;-82
2021/05/12 00:56:49;;;;;;;11.80;9.27;;;14.70;99.90;;;;;;5077307;28;20440;-82
2021/05/12 00:59:15;;;;;;;10.13;8.50;;;14.90;99.90;;;;;;5077132;28;20843;-82
2021/05/12 01:01:41;;;;;;;11.23;10.03;;;14.70;99.90;;;;;;5083232;28;20485;-82
2021/05/12 01:04:08;;;;;;;8.70;7.80;;;14.90;99.90;;;;;;5088294;28;20468;-81
2021/05/12 01:06:37;;;;;;;10.57;9.20;;;14.80;99.90;;;;;;5087382;28;20477;-82
2021/05/12 01:09:04;;;;;;;13.40;8.50;;;15.10;99.90;;;;;;5095333;28;20444;-80
2021/05/12 01:11:30;;;;;;;9.80;8.20;;;14.80;99.90;;;;;;5095615;28;20456;-81
2021/05/12 01:13:56;;;;;;;9.43;8.30;;;;;;;;;;5095518;28;20440;-82
2021/05/12 01:16:23;;;;;;;11.20;8.40;;;14.70;99.90;;;;;;5097376;28;20432;-81
2021/05/12 01:18:49;;;;;;;8.27;7.50;;;14.00;99.90;;;;;;5099661;28;20432;-81
2021/05/12 01:21:17;;;;;;;7.10;6.47;;;14.80;99.90;;;;;;5097810;28;20452;-80
2021/05/12 01:23:45;;;;;;;8.80;7.40;;;14.80;99.90;;;;;;5099036;28;20432;-81
2021/05/12 01:26:13;;;;;;;10.30;7.73;;;14.80;99.90;;;;;;5099038;28;20420;-83
2021/05/12 01:28:42;;;;;;;8.13;7.23;;;14.70;99.90;;;;;;5099887;28;21012;-82
2021/05/12 01:31:11;;;;;;;9.57;7.63;;;14.80;99.90;;;;;;5100044;28;20452;-82
2021/05/12 01:33:39;;;;;;;9.33;8.40;;;14.20;99.90;;;;;;5099060;28;20444;-81
2021/05/12 01:36:07;;;;;;;8.23;7.43;;;14.50;99.90;;;;;;5099796;28;20425;-80
2021/05/12 01:38:35;;;;;;;9.17;7.00;;;14.80;99.90;;;;;;5097293;28;20449;-82
2021/05/12 01:41:02;;;;;;;9.43;8.63;;;14.70;99.90;;;;;;5097007;28;20471;-81
2021/05/12 01:43:28;;;;;;;10.90;8.43;;;14.30;99.90;;;;;;5098463;28;20532;-82
2021/05/12 01:45:54;;;;;;;9.33;8.40;;;14.20;99.90;;;;;;5098232;28;20470;-82
2021/05/12 01:48:21;;;;;;;8.90;7.97;;;14.50;99.90;;;;;;5098506;28;20467;-81
2021/05/12 01:50:47;;;;;;;13.60;8.97;;;14.50;99.90;;;;;;5098008;28;20465;-81
2021/05/12 01:53:14;;;;;;;9.20;7.90;;;14.80;99.90;;;;;;5097009;28;20435;-81
2021/05/12 01:55:41;;;;;;;10.43;7.47;;;14.60;99.90;;;;;;5094320;28;20448;-82
2021/05/12 01:58:08;;;;;;;8.67;7.77;;;14.60;99.90;;;;;;5095271;28;20425;-81
2021/05/12 02:00:36;;;;;;;9.60;8.17;;;14.70;99.90;;;;;;5085874;28;20480;-82
2021/05/12 02:03:04;;;;;;;10.07;7.53;;;14.20;99.90;;;;;;5085080;28;20436;-82
2021/05/12 02:05:31;;;;;;;8.83;6.93;;;15.00;99.90;;;;;;5084186;28;20449;-82
2021/05/12 02:07:59;;;;;;;8.63;7.07;;;14.80;99.90;;;;;;5086493;28;20487;-82
2021/05/12 02:10:25;;;;;;;7.37;6.57;;;14.50;99.90;;;;;;5095576;28;20476;-82
2021/05/12 02:12:52;;;;;;;6.90;5.60;;;14.60;99.90;;;;;;5097372;28;20441;-82
2021/05/12 02:15:19;;;;;;;7.33;6.50;;;14.70;99.90;;;;;;5098270;28;20425;-80
2021/05/12 02:17:46;;;;;;;9.37;7.43;;;14.90;99.90;;;;;;5094884;28;20460;-82
2021/05/12 02:20:14;;;;;;;8.67;6.30;;;14.10;99.90;;;;;;5091137;28;20464;-81
2021/05/12 02:22:40;;;;;;;8.30;6.37;;;13.80;99.90;;;;;;5089018;28;20480;-82
2021/05/12 02:25:08;;;;;;;8.30;5.80;;;14.70;99.90;;;;;;5088551;28;20446;-82
2021/05/12 02:27:35;;;;;;;7.27;6.53;;;14.10;99.90;;;;;;5090430;28;20448;-82
2021/05/12 02:30:03;;;;;;;7.50;6.73;;;14.50;99.90;;;;;;5090140;28;20441;-83
2021/05/12 02:32:29;;;;;;;6.93;6.27;;;14.70;99.90;;;;;;5089523;28;20449;-82
2021/05/12 02:34:56;;;;;;;7.47;6.77;;;14.10;99.90;;;;;;5091207;28;20515;-82
2021/05/12 02:37:23;;;;;;;7.60;6.80;;;13.80;99.90;;;;;;5088901;28;20479;-81
2021/05/12 02:39:49;;;;;;;9.40;6.67;;;;;;;;;;5090695;28;20444;-82
2021/05/12 02:42:16;;;;;;;7.73;6.40;;;14.60;99.90;;;;;;5088682;28;20441;-82
2021/05/12 02:44:42;;;;;;;6.57;5.50;;;13.90;99.90;;;;;;5086078;28;20449;-83
2021/05/12 02:47:09;;;;;;;10.73;7.93;;;14.30;99.90;;;;;;5087764;28;20436;-82
2021/05/12 02:49:35;;;;;;;7.43;5.70;;;14.40;99.90;;;;;;5087529;28;20444;-82
2021/05/12 02:52:02;;;;;;;8.23;5.97;;;14.50;99.90;;;;;;5086353;28;20468;-83
2021/05/12 02:54:28;;;;;;;6.70;6.00;;;14.40;99.90;;;;;;5083755;28;20449;-82
2021/05/12 02:56:55;;;;;;;7.00;5.90;;;13.90;99.90;;;;;;5083055;28;20481;-82
2021/05/12 02:59:21;;;;;;;13.20;6.50;;;14.40;99.90;;;;;;5081603;28;20440;-82
2021/05/12 03:01:47;;;;;;;7.70;6.30;;;14.60;99.90;;;;;;5081394;28;20477;-82
2021/05/12 03:04:14;;;;;;;7.63;5.20;;;14.40;99.90;;;;;;5088766;28;21025;-82
2021/05/12 03:06:40;;;;;;;6.33;5.73;;;14.50;99.90;;;;;;5096671;28;20452;-82
2021/05/12 03:09:09;;;;;;;9.67;7.20;;;14.10;99.90;;;;;;5084139;28;20453;-82
2021/05/12 03:11:35;;;;;;;9.60;6.50;;;14.60;99.90;;;;;;5084584;28;20476;-81
2021/05/12 03:14:03;;;;;;;13.47;9.60;;;14.70;99.90;;;;;;5084000;28;20474;-82
2021/05/12 03:16:29;;;;;;;12.23;7.53;;;14.40;99.90;;;;;;5084655;28;20438;-82
2021/05/12 03:18:56;;;;;;;6.50;5.80;;;;;;;;;;5085481;28;20970;-82
2021/05/12 03:21:23;;;;;;;12.57;8.33;;;14.40;99.90;;;;;;5085483;28;20591;-82
2021/05/12 03:23:49;;;;;;;11.80;6.20;;;14.50;99.90;;;;;;5085220;28;20437;-82
2021/05/12 03:26:16;;;;;;;7.60;6.30;;;13.80;99.90;;;;;;5088262;28;20449;-82
2021/05/12 03:28:44;;;;;;;8.13;6.00;;;13.80;99.90;;;;;;5085190;28;20440;-83
2021/05/12 03:31:10;;;;;;;7.32;5.28;;;14.40;99.90;;;;;;5086448;28;20381;-82
2021/05/12 03:33:36;;;;;;;7.43;4.97;;;14.20;99.90;;;;;;5086152;28;20249;-82
2021/05/12 03:36:03;;;;;;;7.00;4.90;;;13.70;99.90;;;;;;5086439;28;20444;-82
2021/05/12 03:38:31;;;;;;;6.67;6.07;;;14.50;99.90;;;;;;5083666;28;20495;-82
2021/05/12 03:40:57;;;;;;;5.17;3.90;;;13.70;99.90;;;;;;5083845;28;20475;-81
2021/05/12 03:43:23;;;;;;;5.10;4.00;;;13.70;99.90;;;;;;5084948;28;20444;-82
2021/05/12 03:45:49;;;;;;;4.80;4.40;;;14.30;99.90;;;;;;5083466;28;20451;-82
2021/05/12 03:48:16;;;;;;;6.73;3.93;;;14.10;99.90;;;;;;5079408;28;20985;-82
2021/05/12 03:50:42;;;;;;;4.47;4.07;;;13.60;99.90;;;;;;5079787;28;20460;-83
2021/05/12 03:53:08;;;;;;;5.90;4.93;;;13.60;99.90;;;;;;5080254;28;20452;-82
2021/05/12 03:55:36;;;;;;;3.43;3.13;;;13.70;99.90;;;;;;5080171;28;20444;-82
2021/05/12 03:58:03;;;;;;;4.50;4.10;;;14.00;99.90;;;;;;5079750;28;20538;-82
2021/05/12 04:00:29;;;;;;;5.53;3.63;;;14.10;99.90;;;;;;5079894;28;20495;-82
2021/05/12 04:02:55;;;;;;;7.37;3.83;;;14.10;99.90;;;;;;5080220;28;20445;-82
2021/05/12 04:05:22;;;;;;;6.33;4.10;;;14.10;99.90;;;;;;5078788;28;20947;-82
2021/05/12 04:07:48;;;;;;;6.23;3.93;;;13.40;99.90;;;;;;5079601;28;20463;-82
2021/05/12 04:10:15;;;;;;;3.53;3.23;;;13.40;99.90;;;;;;5079662;28;20842;-82
2021/05/12 04:12:42;;;;;;;6.43;3.90;;;14.10;99.90;;;;;;5080249;28;20444;-81
2021/05/12 04:15:10;;;;;;;5.47;3.70;;;14.10;99.90;;;;;;5080740;28;20448;-81
2021/05/12 04:17:36;;;;;;;4.37;3.73;;;14.30;99.90;;;;;;5081196;28;20500;-82
2021/05/12 04:20:02;;;;;;;3.93;3.30;;;;;;;;;;5081118;28;20875;-82
2021/05/12 04:22:29;;;;;;;4.10;3.70;;;14.30;99.90;;;;;;5081329;28;20457;-81
2021/05/12 04:24:55;;;;;;;4.83;3.70;;;14.00;99.90;;;;;;5080856;28;20866;-82
2021/05/12 04:27:21;;;;;;;5.07;4.60;;;14.40;99.90;;;;;;5079485;28;20951;-82
2021/05/12 04:29:48;;;;;;;4.63;4.20;;;14.20;99.90;;;;;;5079600;28;20502;-81
2021/05/12 04:32:14;;;;;;;3.72;3.38;;;14.20;99.90;;;;;;5088729;28;20438;-82
2021/05/12 04:34:40;;;;;;;5.10;4.10;;;14.40;99.90;;;;;;5096139;28;20206;-82
2021/05/12 04:37:08;;;;;;;6.10;4.90;;;13.60;99.90;;;;;;5093414;28;20478;-81
2021/05/12 04:39:34;;;;;;;4.70;4.00;;;13.80;99.90;;;;;;5098225;28;20444;-81
2021/05/12 04:42:00;;;;;;;8.27;4.80;;;14.10;99.90;;;;;;5098360;28;20450;-80
2021/05/12 04:44:26;;;;;;;6.33;3.33;;;13.80;99.90;;;;;;5097743;28;20432;-81
2021/05/12 04:46:55;;;;;;;3.50;3.30;;;13.90;99.90;;;;;;5089662;28;20444;-82
2021/05/12 04:49:22;;;;;;;4.20;3.80;;;14.10;99.90;;;;;;5084077;28;21014;-81
2021/05/12 04:51:48;;;;;;;7.40;4.33;;;14.00;99.90;;;;;;5095386;28;20471;-81
2021/05/12 04:54:14;;;;;;;4.43;4.13;;;14.50;99.90;;;;;;5097729;28;20450;-81
2021/05/12 04:56:41;;;;;;;6.10;4.73;;;;;;;;;;5088487;28;20452;-81
2021/05/12 04:59:07;;;;;;;6.13;4.97;;;14.20;99.90;;;;;;5085242;28;20448;-81
2021/05/12 05:01:33;;;;;;;5.07;4.40;;;14.20;99.90;;;;;;5084728;28;20998;-82
2021/05/12 05:04:00;;;;;;;4.90;4.40;;;14.20;99.90;;;;;;5084848;28;20444;-82
2021/05/12 05:06:27;;;;;;;6.63;4.80;;;14.60;99.90;;;;;;5084403;28;20493;-81
2021/05/12 05:08:54;;;;;;;6.43;4.73;;;14.30;99.90;;;;;;5083920;28;20502;-81
2021/05/12 05:11:20;;;;;;;7.37;4.80;;;13.30;99.90;;;;;;5081477;28;20465;-82
2021/05/12 05:13:46;;;;;;;5.77;4.47;;;14.00;99.90;;;;;;5081173;28;20457;-81
2021/05/12 05:16:12;;;;;;;4.43;4.00;;;13.90;99.90;;;;;;5081606;28;20947;-81
2021/05/12 05:18:39;;;;;;;4.90;4.47;;;14.20;99.90;;;;;;5087789;28;20492;-80
2021/05/12 05:21:07;;;;;;;5.90;5.20;;;14.70;99.90;;;;;;5086457;28;20475;-81
2021/05/12 05:23:33;;;;;;;5.87;4.70;;;14.30;99.90;;;;;;5082308;28;20448;-81
2021/05/12 05:25:59;;;;;;;6.17;5.03;;;14.10;99.90;;;;;;5083722;28;20484;-82
2021/05/12 05:28:26;;;;;;;4.83;4.37;;;13.50;99.90;;;;;;5097953;28;20466;-81
2021/05/12 05:30:52;;;;;;;6.10;5.10;;;14.00;99.90;;;;;;5098360;28;20456;-81
2021/05/12 05:33:18;;;;;;;4.97;4.40;;;14.80;99.90;;;;;;5099768;28;20435;-81
2021/05/12 05:35:44;;;;;;;5.27;4.77;;;15.00;99.90;;;;;;5083523;28;20815;-82
2021/05/12 05:38:11;;;;;;;4.63;4.23;;;14.20;99.90;;;;;;5081444;28;20483;-82
2021/05/12 05:40:37;;;;;;;9.63;7.73;;;13.80;99.90;;;;;;5081374;28;20465;-82
2021/05/12 05:43:04;;;;;;;6.30;4.77;;;14.80;99.90;;;;;;5083127;28;20440;-82
2021/05/12 05:45:30;;;;;;;6.90;4.60;;;13.90;99.90;;;;;;5084221;28;20455;-82
2021/05/12 05:47:56;;;;;;;8.57;4.67;;;13.90;99.90;;;;;;5089250;28;20459;-81
2021/05/12 05:50:23;;;;;;;6.27;5.77;;;14.30;99.90;;;;;;5088701;28;20486;-82
2021/05/12 05:52:49;;;;;;;6.30;4.70;;;14.30;99.90;;;;;;5088402;28;20479;-82
2021/05/12 05:55:16;;;;;;;8.13;5.80;;;14.90;99.90;;;;;;5092325;28;20445;-81
2021/05/12 05:57:43;;;;;;;6.40;5.37;;;;;;;;;;5091278;28;20479;-82
2021/05/12 06:00:10;;;;;;;7.27;4.73;;;14.60;99.90;;;;;;5093006;28;20471;-81
2021/05/12 06:02:37;;;;;;;4.80;4.40;;;;;;;;;;5098470;28;20421;-81
2021/05/12 06:05:04;;;;;;;11.90;5.60;;;14.50;99.90;;;;;;5099313;28;20440;-81
2021/05/12 06:07:31;;;;;;;5.60;4.97;;;14.80;99.90;;;;;;5095596;28;20459;-81
2021/05/12 06:09:57;;;;;;;6.30;5.03;;;;;;;;;;5091229;28;20447;-82
2021/05/12 06:12:24;;;;;;;4.97;4.50;;;14.70;99.90;;;;;;5088675;28;20440;-81
2021/05/12 06:14:52;;;;;;;5.00;4.60;;;14.20;99.90;;;;;;5089211;28;20455;-81
2021/05/12 06:17:18;;;;;;;4.83;4.43;;;14.60;99.90;;;;;;5088463;28;20506;-82
2021/05/12 06:19:44;;;;;;;7.43;5.43;;;14.10;99.90;;;;;;5087389;28;20444;-81
2021/05/12 06:22:10;;;;;;;6.20;5.60;;;14.60;99.90;;;;;;5085869;28;20510;-81
2021/05/12 06:24:38;;;;;;;5.23;4.80;;;15.20;99.90;;;;;;5085870;28;20449;-81
2021/05/12 06:27:05;;;;;;;5.30;4.87;;;14.90;99.90;;;;;;5087061;28;20539;-81
2021/05/12 06:29:32;;;;;;;15.20;13.70;;;14.90;99.90;;;;;;5085953;28;20452;-82
2021/05/12 06:31:58;;;;;;;6.63;6.03;;;14.50;99.90;;;;;;5090850;28;20789;-81
2021/05/12 06:34:25;;;;;;;5.17;4.67;;;15.40;99.90;;;;;;5089697;28;20440;-80
2021/05/12 06:36:51;;;;;;;7.13;6.40;;;;;;;;;;5092341;28;20445;-81
2021/05/12 06:39:17;;;;;;;7.97;5.80;;;14.80;99.90;;;;;;5091006;28;20494;-81
2021/05/12 06:41:43;;;;;;;6.87;5.90;;;;;;;;;;5090322;28;20460;-82
2021/05/12 06:44:10;;;;;;;7.53;6.70;;;14.70;99.90;;;;;;5090811;28;20456;-81
2021/05/12 06:46:37;;;;;;;8.60;6.90;;;13.20;99.90;;;;;;5089233;28;20452;-81
2021/05/12 06:49:03;;;;;;;8.90;6.90;;;14.30;99.90;;;;;;5088660;28;20444;-82
2021/05/12 06:51:29;;;;;;;10.90;7.30;;;14.40;99.90;;;;;;5089001;28;20495;-81
2021/05/12 06:53:56;;;;;;;14.90;7.70;;;;;;;;;;5085351;28;20500;-81
2021/05/12 06:56:22;;;;;;;9.30;7.70;;;14.30;99.90;;;;;;5085555;28;20448;-81
2021/05/12 06:58:48;;;;;;;11.30;7.30;;;14.30;99.90;;;;;;5083339;28;20565;-80
2021/05/12 07:01:14;;;;;;;9.20;8.03;;;14.30;99.90;;;;;;5084334;28;20476;-81
2021/05/12 07:03:41;;;;;;;8.27;7.27;;;14.20;99.90;;;;;;5084184;28;20452;-81
2021/05/12 07:06:07;;;;;;;9.93;7.80;;;14.10;99.90;;;;;;5083105;28;20472;-82
2021/05/12 07:08:34;;;;;;;10.30;8.10;;;13.90;99.90;;;;;;5083007;28;20452;-81
2021/05/12 07:11:01;;;;;;;8.60;7.13;;;13.40;99.90;;;;;;5083784;28;20503;-81
2021/05/12 07:13:27;;;;;;;9.37;7.17;;;;;;;;;;5085226;28;20453;-81
2021/05/12 07:15:53;;;;;;;6.53;5.93;;;14.40;99.90;;;;;;5083556;28;20445;-81
2021/05/12 07:18:20;;;;;;;8.33;6.80;;;14.30;99.90;;;;;;5083267;28;20499;-81
2021/05/12 07:20:47;;;;;;;11.27;7.10;;;14.40;99.90;;;;;;5083167;28;20468;-82
2021/05/12 07:23:19;;;;;;;13.70;7.70;;;14.40;99.90;;;;;;5082272;28;20441;-81
2021/05/12 07:25:45;;;;;;;9.23;7.90;;;13.90;99.90;;;;;;5082066;28;20566;-81
2021/05/12 07:28:11;;;;;;;8.77;7.43;;;14.60;99.90;;;;;;5080887;28;20440;-81
2021/05/12 07:30:37;;;;;;;12.00;7.90;;;14.30;99.90;;;;;;5081140;28;20468;-81
2021/05/12 07:33:04;;;;;;;10.50;8.47;;;14.80;99.90;;;;;;5081629;28;20948;-81
2021/05/12 07:35:30;;;;;;;10.77;8.30;;;14.50;99.90;;;;;;5081110;28;20873;-82
2021/05/12 07:37:57;;;;;;;11.70;9.33;;;14.20;99.90;;;;;;5080857;28;20491;-81
2021/05/12 07:40:23;;;;;;;14.10;8.60;;;14.70;99.90;;;;;;5081311;28;20471;-82
2021/05/12 07:42:51;;;;;;;8.80;7.90;;;14.80;99.90;;;;;;5081330;28;20445;-82
2021/05/12 07:45:17;;;;;;;10.57;8.63;;;14.90;99.90;;;;;;5080530;28;20951;-82
2021/05/12 07:47:43;;;;;;;12.23;8.33;;;14.70;99.90;;;;;;5081814;28;20450;-81
2021/05/12 07:50:11;;;;;;;10.17;8.50;;;15.30;99.90;;;;;;5081036;28;20475;-82
2021/05/12 07:52:37;;;;;;;9.83;7.93;;;14.70;99.90;;;;;;5081727;28;20452;-82
2021/05/12 07:55:06;;;;;;;12.40;8.10;;;15.00;99.90;;;;;;5082723;28;20459;-82
2021/05/12 07:57:32;;;;;;;12.90;9.07;;;15.00;99.90;;;;;;5084507;28;20476;-82
2021/05/12 08:00:00;;;;;;;17.70;9.70;;;;;;;;;;5081271;28;20447;-83
2021/05/12 08:02:26;;;;;;;11.70;9.17;;;14.80;99.90;;;;;;5079874;28;20857;-83
2021/05/12 08:04:52;;;;;;;16.77;9.30;;;14.80;99.90;;;;;;5081385;28;20452;-81
2021/05/12 08:07:18;;;;;;;11.47;9.50;;;14.80;99.90;;;;;;5080698;28;20843;-81
2021/05/12 08:09:45;;;;;;;13.60;9.83;;;14.40;99.90;;;;;;5079528;28;21012;-81
2021/05/12 08:12:12;;;;;;;14.07;11.37;;;14.60;99.90;;;;;;5080654;28;20515;-82
2021/05/12 08:14:38;;;;;;;14.80;11.13;;;15.20;99.90;;;;;;5090490;28;20444;-82
2021/05/12 08:17:04;;;;;;;13.80;10.70;;;14.50;99.90;;;;;;5091917;28;20491;-82
2021/05/12 08:19:30;;;;;;;13.63;10.07;;;14.60;99.90;;;;;;5092207;28;20441;-81
2021/05/12 08:21:56;;;;;;;13.50;10.57;;;13.80;99.90;;;;;;5082752;28;20456;-82
2021/05/12 08:24:22;;;;;;;13.90;10.30;;;14.20;99.90;;;;;;5081555;28;20436;-82
2021/05/12 08:26:49;;;;;;;13.27;11.10;;;14.60;99.90;;;;;;5082144;28;20458;-82
2021/05/12 08:29:16;;;;;;;14.17;11.63;;;14.70;99.90;;;;;;5083448;28;20464;-81
2021/05/12 08:31:44;;;;;;;17.87;12.90;;;14.00;99.90;;;;;;5083634;28;20554;-81
2021/05/12 08:34:11;;;;;;;13.23;10.30;;;;;;;;;;5084414;28;20822;-82
2021/05/12 08:36:37;;;;;;;19.07;11.73;;;14.70;99.90;;;;;;5083945;28;20446;-82
2021/05/12 08:39:04;;;;;;;17.13;12.03;;;14.70;99.90;;;;;;5083517;28;20480;-82
2021/05/12 08:41:33;;;;;;;17.50;11.13;;;15.40;99.90;;;;;;5084341;28;20468;-82
2021/05/12 08:44:01;;;;;;;15.23;11.30;;;14.60;99.90;;;;;;5084035;28;20459;-81
2021/05/12 08:46:29;;;;;;;14.47;11.20;;;15.00;99.90;;;;;;5084117;28;20440;-81
2021/05/12 08:48:56;;;;;;;20.13;11.90;;;15.00;99.90;;;;;;5084525;28;20447;-81
2021/05/12 08:51:22;;;;;;;18.83;11.43;;;14.90;99.90;;;;;;5083235;28;20452;-80
2021/05/12 08:53:49;;;;;;;17.07;13.27;;;14.20;99.90;;;;;;5084377;28;20955;-82
2021/05/12 08:56:15;;;;;;;20.50;12.97;;;;;;;;;;5084305;28;20448;-82
2021/05/12 08:58:41;;;;;;;13.87;11.47;;;14.70;99.90;;;;;;5087069;28;20476;-82
2021/05/12 09:01:07;;;;;;;13.77;11.17;;;14.60;99.90;;;;;;5069865;28;551163;-82
2021/05/12 09:03:35;;;;;;;17.43;12.00;;;14.50;99.90;;;;;;5087224;28;20478;-82
2021/05/12 09:06:01;;;;;;;17.13;12.20;;;14.10;99.90;;;;;;5086120;28;20459;-82
2021/05/12 09:08:27;;;;;;;18.97;12.20;;;14.70;99.90;;;;;;5085185;28;20436;-82
2021/05/12 09:10:54;;;;;;;20.33;12.10;;;;;;;;;;5084678;28;20973;-81
2021/05/12 09:13:33;;;;;;;15.57;11.73;;;14.70;99.90;;;;;;5085265;28;20471;-82
2021/05/12 09:16:19;;;;;;;20.80;12.47;;;14.50;99.90;;;;;;5084192;28;20943;-82
2021/05/12 09:18:47;;;;;;;17.53;12.67;;;15.40;99.90;;;;;;5083037;28;20472;-82
2021/05/12 09:21:14;;;;;;;19.30;12.20;;;15.10;99.90;;;;;;5084580;28;20468;-82
2021/05/12 09:23:43;;;;;;;17.83;13.00;;;14.90;99.90;;;;;;5083498;28;20925;-82
2021/05/12 09:26:14;;;;;;;16.10;11.70;;;14.90;99.90;;;;;;5084222;28;20470;-81
2021/05/12 09:28:40;;;;;;;16.40;11.60;;;14.50;99.90;;;;;;5084235;28;20435;-81
2021/05/12 09:31:11;;;;;;;20.50;13.07;;;14.30;99.90;;;;;;5083606;28;20467;-81
2021/05/12 09:33:39;;;;;;;19.50;12.57;;;14.80;99.90;;;;;;5083961;28;20440;-80
2021/05/12 09:36:09;;;;;;;17.70;12.60;;;14.40;99.90;;;;;;5084456;28;20465;-81
2021/05/12 09:38:36;;;;;;;20.13;13.70;;;15.20;99.90;;;;;;5084555;28;20913;-82
2021/05/12 09:41:08;;;;;;;19.10;13.73;;;15.40;99.90;;;;;;5083663;28;20518;-82
2021/05/12 09:43:37;;;;;;;14.30;12.53;;;15.40;99.90;;;;;;5082965;28;20845;-83
2021/05/12 09:46:18;;;;;;;16.40;12.43;;;15.30;99.90;;;;;;5092760;28;20411;-82
2021/05/12 09:48:48;;;;;;;20.77;14.17;;;15.20;99.90;;;;;;5099456;28;20478;-81
2021/05/12 09:51:19;;;;;;;16.10;12.37;;;14.90;99.90;;;;;;5099346;28;20448;-81
2021/05/12 09:54:07;;;;;;;18.50;13.20;;;15.20;99.90;;;;;;5094429;28;20467;-82
2021/05/12 09:56:38;;;;;;;20.00;14.20;;;15.60;99.90;;;;;;5089819;28;20459;-82
2021/05/12 09:59:08;;;;;;;23.67;15.20;;;14.90;99.90;;;;;;5087936;28;20480;-81
2021/05/12 10:01:46;;;;;;;21.30;15.60;;;15.00;99.90;;;;;;5085697;28;20494;-82
2021/05/12 10:04:23;;;;;;;21.37;16.23;;;15.20;99.90;;;;;;5086037;28;20432;-82
2021/05/12 10:06:51;;;;;;;21.17;14.87;;;15.20;99.90;;;;;;5085167;28;20496;-82
2021/05/12 10:09:21;;;;;;;22.07;14.93;;;15.40;99.90;;;;;;5087029;28;20455;-82
2021/05/12 10:12:05;;;;;;;22.20;16.50;;;15.10;99.90;;;;;;5092244;28;20460;-81
2021/05/12 10:14:33;;;;;;;19.47;15.80;;;14.30;99.90;;;;;;5093788;28;20420;-82
2021/05/12 10:17:00;;;;;;;19.43;14.97;;;15.10;99.90;;;;;;5092180;28;20439;-82
2021/05/12 10:19:26;;;;;;;23.03;16.63;;;15.20;99.90;;;;;;5093848;28;20445;-81
2021/05/12 10:21:53;;;;;;;20.20;15.07;;;15.50;99.90;;;;;;5094149;28;20475;-81
2021/05/12 10:24:19;;;;;;;19.87;15.77;;;15.40;99.90;;;;;;5092416;28;20436;-82
2021/05/12 10:26:46;;;;;;;23.20;15.50;;;14.70;99.90;;;;;;5093249;28;20818;-82
2021/05/12 10:29:14;;;;;;;19.77;14.53;;;15.20;99.90;;;;;;5092669;28;20597;-82
2021/05/12 10:31:41;;;;;;;22.17;14.47;;;15.10;99.90;;;;;;5093480;28;20532;-82
2021/05/12 10:34:07;;;;;;;21.43;14.20;;;15.20;99.90;;;;;;5092961;28;20447;-82
2021/05/12 10:36:34;;;;;;;19.53;13.30;;;15.50;99.90;;;;;;5092693;28;20445;-82
2021/05/12 10:39:04;;;;;;;20.80;14.13;;;15.30;99.90;;;;;;5088657;28;20484;-83
2021/05/12 10:41:43;;;;;;;20.53;15.37;;;15.30;99.90;;;;;;5088416;28;20487;-82
2021/05/12 10:44:14;;;;;;;19.60;14.97;;;14.90;99.90;;;;;;5087825;28;20971;-82
2021/05/12 10:47:05;;;;;;;25.63;15.33;;;15.20;99.90;;;;;;5089349;28;20425;-82
2021/05/12 10:49:32;;;;;;;22.00;15.00;;;15.10;99.90;;;;;;5085504;28;20452;-82
2021/05/12 10:52:06;;;;;;;24.37;16.30;;;15.30;99.90;;;;;;5086140;28;20469;-82
2021/05/12 10:54:45;;;;;;;19.40;14.00;;;15.10;99.90;;;;;;5085000;28;20433;-82
2021/05/12 10:57:44;;;;;;;19.97;14.70;;;15.60;99.90;;;;;;5085944;28;20490;-83
2021/05/12 11:00:11;;;;;;;19.13;14.50;;;15.70;99.90;;;;;;5093196;28;20468;-82
2021/05/12 11:03:00;;;;;;;22.30;14.10;;;15.50;99.90;;;;;;5092132;28;20504;-82
2021/05/12 11:05:40;;;;;;;20.33;14.50;;;15.40;99.90;;;;;;5093060;28;20853;-82
2021/05/12 11:08:15;;;;;;;20.30;15.10;;;15.30;99.90;;;;;;5093973;28;20433;-81
2021/05/12 11:10:53;;;;;;;19.50;13.60;;;14.70;99.90;;;;;;5091137;28;20460;-82
2021/05/12 11:13:20;;;;;;;18.03;13.57;;;15.20;99.90;;;;;;5092708;28;20786;-82
2021/05/12 11:15:50;;;;;;;18.27;14.10;;;15.30;99.90;;;;;;5092107;28;20448;-82
2021/05/12 11:18:50;;;;;;;19.37;14.50;;;15.50;99.90;;;;;;5092669;28;20488;-82
2021/05/12 11:21:27;;;;;;;24.43;15.50;;;15.60;99.90;;;;;;5091229;28;20543;-81
2021/05/12 11:24:12;;;;;;;19.73;13.80;;;15.50;99.90;;;;;;5090041;28;20424;-81
2021/05/12 11:32:11;;;;;;;19.10;13.90;;;14.50;99.90;;;;;;5090821;28;20452;-81
2021/05/12 11:34:38;;;;;;;20.17;15.07;;;15.30;99.90;;;;;;5088550;28;20448;-83
2021/05/12 11:37:06;;;;;;;20.37;14.87;;;15.10;99.90;;;;;;5088224;28;20478;-80
2021/05/12 11:39:33;;;;;;;19.30;14.73;;;15.40;99.90;;;;;;5087495;28;20452;-82
2021/05/12 11:42:00;;;;;;;20.70;13.57;;;14.90;99.90;;;;;;5090812;28;20461;-81
2021/05/12 11:44:27;;;;;;;25.53;15.33;;;14.10;99.90;;;;;;5090561;28;20436;-81
2021/05/12 11:46:53;;;;;;;23.03;14.00;;;15.00;99.90;;;;;;5091135;28;20448;-81
2021/05/12 11:49:22;;;;;;;22.60;14.20;;;14.90;99.90;;;;;;5092094;28;20437;-82
2021/05/12 11:51:51;;;;;;;27.03;16.20;;;15.50;99.90;;;;;;5091250;28;20472;-81
2021/05/12 11:54:19;;;;;;;20.00;14.00;;;15.40;99.90;;;;;;5090693;28;20459;-82
2021/05/12 11:56:47;;;;;;;20.93;14.77;;;15.80;99.90;;;;;;5089490;28;20448;-81
2021/05/12 11:59:19;;;;;;;19.40;14.17;;;15.10;99.90;;;;;;5091278;28;20487;-82
2021/05/12 12:01:48;;;;;;;18.13;13.30;;;15.90;99.90;;;;;;5088402;28;20476;-82
2021/05/12 12:04:22;;;;;;;26.60;15.87;;;15.50;99.90;;;;;;5090001;28;20508;-82
2021/05/12 12:06:49;;;;;;;21.50;15.00;;;;;;;;;;5090781;28;20436;-82
2021/05/12 12:09:17;;;;;;;21.23;15.27;;;15.50;99.90;;;;;;5089650;28;20444;-82
2021/05/12 12:11:45;;;;;;;19.40;15.03;;;15.50;99.90;;;;;;5090118;28;20522;-83
2021/05/12 12:14:11;;;;;;;22.60;13.90;;;15.40;99.90;;;;;;5088515;28;20436;-82
2021/05/12 12:16:40;;;;;;;25.13;15.33;;;15.40;99.90;;;;;;5088970;28;20986;-81
2021/05/12 12:19:10;;;;;;;22.90;14.40;;;15.60;99.90;;;;;;5086345;28;20484;-81
2021/05/12 12:21:37;;;;;;;22.30;14.90;;;15.50;99.90;;;;;;5084119;28;20470;-80
2021/05/12 12:24:09;;;;;;;23.03;15.03;;;15.80;99.90;;;;;;5092023;28;20444;-82
2021/05/12 12:26:36;;;;;;;20.70;13.67;;;15.80;99.90;;;;;;5091366;28;20456;-81
2021/05/12 12:29:06;;;;;;;22.40;15.60;;;16.00;99.90;;;;;;5092307;28;20451;-81
2021/05/12 12:31:38;;;;;;;18.80;15.27;;;15.80;99.90;;;;;;5090436;28;20459;-82
2021/05/12 12:34:10;;;;;;;18.30;15.73;;;15.10;99.90;;;;;;5089060;28;20439;-82
2021/05/12 12:37:03;;;;;;;20.97;14.40;;;14.80;99.90;;;;;;5095045;28;20462;-81
2021/05/12 12:39:48;;;;;;;23.27;14.43;;;15.50;99.90;;;;;;5080875;28;20906;-82
2021/05/12 12:42:17;;;;;;;18.53;15.00;;;15.10;99.90;;;;;;5095756;28;20436;-82
2021/05/12 12:44:45;;;;;;;21.10;14.33;;;15.60;99.90;;;;;;5097594;28;20439;-82
2021/05/12 12:47:16;;;;;;;23.83;14.90;;;15.60;99.90;;;;;;5093155;28;20451;-81
2021/05/12 12:49:48;;;;;;;17.53;14.33;;;15.60;99.90;;;;;;5090212;28;20437;-83
2021/05/12 12:52:17;;;;;;;20.33;14.10;;;15.50;99.90;;;;;;5092837;28;20433;-83